map of PKV home
PKV - Airport
Location
City:  Pskov, Pskovskaya, Russian Federation (Russia)
Name:Pskov Airport
ICAO:ULOO
IATA:PKV

Details
Type:Airport (Aerodrome, Airfield)
Use:Public/Civil, International (customs port of entry)
Latitude:5747'02"N (57.783889)
Longitude:2823'43"E (28.395278)
Elevation:154 ft (47 m)
Variation:9.46E (WMM2015 magnetic declination)
0.14 annual change
Runways:1
Longest:6585 × 144 ft (2007 × 44 m), paved

Time
Time Zone:UTC+3 (DST+4)

Weather
METAR:ULOO 160300Z AUTO 19004MPS 9000 // ///027/// 04/03 Q1040 RMK QFE775

Related Locations
Nearby:
Farthest:CHT: 10994 mi / 17693 km
Waitangi [Tuuta], CIT, NZ

Find:

   beyond  
but within

Other Information
Maps:
NOTAMs:
Links:
Sources:

  
  • flag of Russian Federation (Russia)
  • flag of Pskovskaya
  

Airport Diagram

Airport diagram for PKV

Airport diagram PDF from AIP of the Russian Federation

Sectional Chart

Flight Planning
at skyvector.com

Satellite Image

Google Maps Satellite view

Yandex Maps Satellite view


 

Copyright © 2004-2018 Karl L. Swartz. All rights reserved.
The Great Circle Mapper name and logo are trademarks of the Great Circle Mapper.
All other trademarks mentioned herein belong to their respective owners.
Please see credits for attibutions and further copyright information.

  Follow gcmap on Facebook Follow gcmap on Twitter Follow gcmap on Google+ GCmap on LinkedIn

hCard Microformat

Geo Microformat